Time;durP1;ratioP1;P1;durP2;ratioP2;P2;SDS_P1;SDS_P2;PMS_P1;PMS_P2;Temp;Humidity;BMP_temperature;BMP_pressure;BME280_temperature;BME280_humidity;BME280_pressure;Samples;Min_cycle;Max_cycle;Signal;HPM_P1;HPM_P2
2022/06/19 00:01:04;;;;;;;17.08;2.80;;;;;;;;;;5029315;28;20025;-71
2022/06/19 00:03:30;;;;;;;15.30;2.33;;;;;;;;;;5030346;28;20175;-69
2022/06/19 00:05:56;;;;;;;11.50;2.50;;;;;;;;;;5043297;28;20537;-69
2022/06/19 00:08:23;;;;;;;19.45;2.67;;;;;;;;;;5048436;28;20017;-69
2022/06/19 00:10:49;;;;;;;18.25;2.58;;;;;;;;;;5043523;28;20048;-69
2022/06/19 00:13:15;;;;;;;15.73;2.10;;;;;;;;;;5037785;28;20034;-68
2022/06/19 00:15:41;;;;;;;15.50;2.83;;;;;;;;;;5042539;28;20025;-69
2022/06/19 00:18:08;;;;;;;11.40;2.15;;;;;;;;;;5047019;28;20130;-68
2022/06/19 00:20:34;;;;;;;17.30;2.28;;;;;;;;;;5041803;28;20496;-68
2022/06/19 00:23:00;;;;;;;13.50;2.30;;;;;;;;;;5038868;28;20059;-69
2022/06/19 00:25:26;;;;;;;11.75;1.90;;;;;;;;;;5044348;28;20061;-69
2022/06/19 00:27:52;;;;;;;13.88;2.05;;;;;;;;;;5043486;28;20060;-69
2022/06/19 00:30:18;;;;;;;10.35;2.22;;;;;;;;;;5046845;28;20039;-68
2022/06/19 00:32:44;;;;;;;13.50;2.55;;;;;;;;;;5042111;28;20033;-70
2022/06/19 00:35:10;;;;;;;12.55;2.08;;;;;;;;;;5040287;28;20072;-69
2022/06/19 00:37:37;;;;;;;15.27;2.25;;;;;;;;;;5039668;28;20029;-70
2022/06/19 00:40:07;;;;;;;15.88;2.33;;;;;;;;;;5044602;28;20034;-70
2022/06/19 00:42:33;;;;;;;11.75;2.15;;;;;;;;;;5042015;28;20578;-70
2022/06/19 00:44:59;;;;;;;15.57;1.88;;;;;;;;;;5041545;28;20048;-68
2022/06/19 00:47:26;;;;;;;12.90;2.05;;;;;;;;;;5041467;28;20033;-68
2022/06/19 00:49:54;;;;;;;10.75;1.80;;;;;;;;;;5042765;28;20020;-69
2022/06/19 00:52:25;;;;;;;6.63;1.60;;;;;;;;;;5045370;28;20029;-69
2022/06/19 00:54:51;;;;;;;11.00;1.83;;;;;;;;;;5040669;28;20025;-69
2022/06/19 00:57:18;;;;;;;9.98;2.08;;;;;;;;;;5045691;28;20036;-70
2022/06/19 00:59:49;;;;;;;11.65;2.97;;;;;;;;;;5042498;28;20072;-70
2022/06/19 01:02:15;;;;;;;10.93;2.00;;;;;;;;;;5038640;28;20034;-69
2022/06/19 01:04:44;;;;;;;9.55;1.70;;;;;;;;;;5035051;28;20029;-69
2022/06/19 01:07:10;;;;;;;15.15;1.75;;;;;;;;;;5036808;28;20593;-69
2022/06/19 01:09:36;;;;;;;9.07;1.50;;;;;;;;;;5041043;28;20037;-69
2022/06/19 01:12:04;;;;;;;11.02;1.63;;;;;;;;;;5038384;28;20536;-69
2022/06/19 01:14:31;;;;;;;10.98;1.60;;;;;;;;;;5041199;28;20024;-70
2022/06/19 01:16:57;;;;;;;10.25;1.50;;;;;;;;;;5038785;28;20033;-69
2022/06/19 01:19:25;;;;;;;6.90;1.63;;;;;;;;;;5039281;28;20452;-69
2022/06/19 01:21:56;;;;;;;8.05;1.83;;;;;;;;;;5029807;28;20402;-69
2022/06/19 01:24:28;;;;;;;21.70;2.30;;;;;;;;;;5040864;28;20116;-68
2022/06/19 01:26:59;;;;;;;14.38;2.95;;;;;;;;;;5039658;28;20041;-69
2022/06/19 01:29:27;;;;;;;13.15;1.73;;;;;;;;;;5039444;28;20037;-70
2022/06/19 01:31:57;;;;;;;7.88;1.40;;;;;;;;;;5035575;28;20021;-70
2022/06/19 01:34:32;;;;;;;14.00;1.48;;;;;;;;;;5037718;28;20040;-70
2022/06/19 01:37:04;;;;;;;10.02;1.67;;;;;;;;;;5029655;28;20032;-71
2022/06/19 01:39:33;;;;;;;11.82;2.40;;;;;;;;;;5034613;28;20036;-70
2022/06/19 01:42:01;;;;;;;19.25;1.63;;;;;;;;;;5033921;28;20029;-70
2022/06/19 01:44:27;;;;;;;9.23;1.83;;;;;;;;;;5041444;28;20542;-69
2022/06/19 01:46:53;;;;;;;13.38;1.60;;;;;;;;;;5031525;28;20033;-71
2022/06/19 01:49:19;;;;;;;11.55;1.55;;;;;;;;;;5035012;28;20034;-70
2022/06/19 01:51:45;;;;;;;10.82;1.50;;;;;;;;;;5041785;28;20039;-71
2022/06/19 01:54:16;;;;;;;6.43;1.20;;;;;;;;;;5036524;28;20037;-71
2022/06/19 01:56:42;;;;;;;7.13;1.30;;;;;;;;;;5037592;28;20083;-70
2022/06/19 01:59:09;;;;;;;8.63;1.52;;;;;;;;;;5034058;28;20041;-71
2022/06/19 02:01:36;;;;;;;12.90;2.00;;;;;;;;;;5039597;28;20101;-70
2022/06/19 02:04:05;;;;;;;8.02;1.50;;;;;;;;;;5035732;28;20030;-72
2022/06/19 02:06:34;;;;;;;16.75;1.95;;;;;;;;;;5045435;28;20042;-70
2022/06/19 02:09:01;;;;;;;7.18;1.30;;;;;;;;;;5034746;28;20025;-70
2022/06/19 02:11:27;;;;;;;9.30;1.30;;;;;;;;;;5038665;28;20403;-70
2022/06/19 02:13:57;;;;;;;14.27;1.55;;;;;;;;;;5037407;28;20036;-69
2022/06/19 02:16:23;;;;;;;10.73;2.05;;;;;;;;;;5035697;28;20067;-69
2022/06/19 02:18:51;;;;;;;8.40;1.50;;;;;;;;;;5030949;28;20032;-69
2022/06/19 02:21:19;;;;;;;8.18;1.33;;;;;;;;;;5042917;28;20029;-69
2022/06/19 02:23:45;;;;;;;12.38;1.95;;;;;;;;;;5034603;28;20471;-68
2022/06/19 02:26:12;;;;;;;18.30;2.08;;;;;;;;;;5030911;28;20027;-69
2022/06/19 02:28:40;;;;;;;10.75;2.00;;;;;;;;;;5040456;28;20033;-70
2022/06/19 02:31:06;;;;;;;14.82;2.38;;;;;;;;;;5042657;28;20111;-70
2022/06/19 02:33:34;;;;;;;14.15;2.30;;;;;;;;;;5034185;28;20036;-70
2022/06/19 02:36:01;;;;;;;11.63;1.90;;;;;;;;;;5034537;28;20068;-70
2022/06/19 02:38:27;;;;;;;15.90;2.67;;;;;;;;;;5038789;28;20590;-69
2022/06/19 02:41:10;;;;;;;16.27;2.40;;;;;;;;;;5034207;28;20864;-71
2022/06/19 02:43:36;;;;;;;16.98;2.53;;;;;;;;;;5034615;28;21726;-71
2022/06/19 02:46:08;;;;;;;13.43;2.60;;;;;;;;;;5039426;28;20036;-70
2022/06/19 02:48:35;;;;;;;16.58;2.25;;;;;;;;;;5033116;28;20033;-70
2022/06/19 02:51:03;;;;;;;16.33;2.17;;;;;;;;;;5044774;28;20060;-70
2022/06/19 02:53:29;;;;;;;24.80;4.47;;;;;;;;;;5035058;28;20035;-69
2022/06/19 02:55:57;;;;;;;21.17;3.22;;;;;;;;;;5037528;28;20078;-70
2022/06/19 02:58:25;;;;;;;17.10;3.10;;;;;;;;;;5034558;28;20033;-70
2022/06/19 03:00:51;;;;;;;18.23;2.50;;;;;;;;;;5030712;28;20048;-69
2022/06/19 03:03:26;;;;;;;18.45;2.90;;;;;;;;;;5037683;28;20095;-69
2022/06/19 03:05:52;;;;;;;16.15;2.33;;;;;;;;;;5038314;28;20052;-71
2022/06/19 03:08:18;;;;;;;12.23;2.63;;;;;;;;;;5034040;28;20584;-71
2022/06/19 03:10:44;;;;;;;18.52;2.55;;;;;;;;;;5039406;28;20029;-71
2022/06/19 03:13:10;;;;;;;23.27;3.58;;;;;;;;;;5037276;28;20033;-70
2022/06/19 03:15:36;;;;;;;22.00;2.63;;;;;;;;;;5037075;28;20432;-70
2022/06/19 03:18:02;;;;;;;23.88;2.88;;;;;;;;;;5034892;28;20032;-68
2022/06/19 03:20:28;;;;;;;20.38;2.80;;;;;;;;;;5033684;28;20060;-71
2022/06/19 03:22:55;;;;;;;12.90;2.08;;;;;;;;;;5040211;28;20035;-70
2022/06/19 03:25:21;;;;;;;22.60;3.70;;;;;;;;;;5035896;28;20038;-71
2022/06/19 03:27:48;;;;;;;22.40;3.47;;;;;;;;;;5034928;28;20112;-70
2022/06/19 03:30:15;;;;;;;16.33;2.33;;;;;;;;;;5033324;28;20041;-71
2022/06/19 03:32:41;;;;;;;16.80;2.25;;;;;;;;;;5029580;28;20495;-70
2022/06/19 03:35:07;;;;;;;23.88;2.42;;;;;;;;;;5034761;28;20083;-69
2022/06/19 03:37:34;;;;;;;17.02;2.40;;;;;;;;;;5030712;28;20063;-71
2022/06/19 03:40:00;;;;;;;15.00;3.20;;;;;;;;;;5032129;28;20109;-72
2022/06/19 03:42:26;;;;;;;20.95;2.10;;;;;;;;;;5036092;28;20942;-70
2022/06/19 03:44:52;;;;;;;19.15;2.72;;;;;;;;;;5036050;28;20124;-71
2022/06/19 03:47:21;;;;;;;21.17;2.40;;;;;;;;;;5042128;28;20121;-70
2022/06/19 03:49:48;;;;;;;14.48;2.22;;;;;;;;;;5030870;28;20037;-71
2022/06/19 03:52:14;;;;;;;12.43;2.17;;;;;;;;;;5039220;28;20036;-72
2022/06/19 03:54:40;;;;;;;13.10;2.00;;;;;;;;;;5035240;28;20033;-70
2022/06/19 03:57:06;;;;;;;14.75;2.50;;;;;;;;;;5039395;28;20069;-71
2022/06/19 03:59:32;;;;;;;11.85;2.42;;;;;;;;;;5030169;28;20033;-70
2022/06/19 04:01:59;;;;;;;15.60;3.33;;;;;;;;;;5030605;28;20043;-71
2022/06/19 04:04:25;;;;;;;15.80;2.60;;;;;;;;;;5024810;28;20040;-70
2022/06/19 04:06:51;;;;;;;15.32;2.28;;;;;;;;;;5032135;28;20050;-70
2022/06/19 04:09:18;;;;;;;15.05;2.55;;;;;;;;;;5031718;28;20479;-70
2022/06/19 04:11:44;;;;;;;14.77;2.72;;;;;;;;;;5033926;28;20028;-70
2022/06/19 04:14:11;;;;;;;13.32;2.30;;;;;;;;;;5023060;28;20139;-70
2022/06/19 04:16:37;;;;;;;19.05;1.85;;;;;;;;;;5034274;28;20132;-70
2022/06/19 04:19:04;;;;;;;20.88;3.17;;;;;;;;;;5028587;28;20033;-72
2022/06/19 04:21:31;;;;;;;17.88;2.95;;;;;;;;;;5029822;28;20029;-70
2022/06/19 04:23:59;;;;;;;25.98;3.10;;;;;;;;;;5038593;28;20033;-71
2022/06/19 04:26:27;;;;;;;21.23;3.03;;;;;;;;;;5026763;28;20155;-72
2022/06/19 04:28:54;;;;;;;14.68;2.20;;;;;;;;;;5030253;28;20075;-71
2022/06/19 04:31:20;;;;;;;19.13;3.28;;;;;;;;;;5035425;28;20057;-71
2022/06/19 04:33:46;;;;;;;19.27;2.80;;;;;;;;;;5035068;28;20105;-73
2022/06/19 04:36:13;;;;;;;14.43;1.92;;;;;;;;;;5025946;28;20059;-71
2022/06/19 04:38:40;;;;;;;19.35;2.47;;;;;;;;;;5021966;28;20049;-71
2022/06/19 04:41:12;;;;;;;10.15;2.53;;;;;;;;;;5027350;28;20050;-72
2022/06/19 04:43:38;;;;;;;15.55;2.53;;;;;;;;;;5035129;28;20099;-71
2022/06/19 04:46:05;;;;;;;15.80;2.97;;;;;;;;;;5027040;28;20419;-74
2022/06/19 04:48:32;;;;;;;22.88;2.70;;;;;;;;;;5036122;28;20033;-70
2022/06/19 04:50:58;;;;;;;17.73;2.50;;;;;;;;;;5029049;28;20123;-71
2022/06/19 04:53:25;;;;;;;21.88;2.75;;;;;;;;;;5037878;28;20109;-70
2022/06/19 04:55:51;;;;;;;14.70;2.70;;;;;;;;;;5037572;28;20033;-70
2022/06/19 04:58:18;;;;;;;14.30;2.55;;;;;;;;;;5038057;28;20123;-70
2022/06/19 05:00:44;;;;;;;22.63;2.78;;;;;;;;;;5029983;28;20034;-70
2022/06/19 05:03:10;;;;;;;17.63;3.00;;;;;;;;;;5039219;28;20037;-69
2022/06/19 05:05:36;;;;;;;28.13;3.53;;;;;;;;;;5031013;28;20053;-69
2022/06/19 05:08:02;;;;;;;20.08;2.33;;;;;;;;;;5034562;28;20033;-70
2022/06/19 05:10:28;;;;;;;21.08;3.00;;;;;;;;;;5031307;28;20041;-71
2022/06/19 05:12:56;;;;;;;18.98;2.78;;;;;;;;;;5029035;28;20091;-71
2022/06/19 05:15:23;;;;;;;15.18;3.53;;;;;;;;;;5028678;28;20033;-70
2022/06/19 05:17:49;;;;;;;23.23;3.33;;;;;;;;;;5032953;28;20025;-70
2022/06/19 05:20:15;;;;;;;13.30;2.28;;;;;;;;;;5051753;28;20041;-71
2022/06/19 05:22:41;;;;;;;17.83;2.63;;;;;;;;;;5026824;28;20836;-70
2022/06/19 05:25:11;;;;;;;19.13;3.22;;;;;;;;;;5031894;28;20037;-70
2022/06/19 05:27:37;;;;;;;18.38;2.63;;;;;;;;;;5034676;28;20036;-71
2022/06/19 05:30:04;;;;;;;16.80;3.25;;;;;;;;;;5038266;28;20037;-70
2022/06/19 05:32:30;;;;;;;14.85;2.83;;;;;;;;;;5027459;28;20800;-69
2022/06/19 05:34:56;;;;;;;15.32;2.83;;;;;;;;;;5025916;28;20052;-70
2022/06/19 05:37:23;;;;;;;17.92;3.60;;;;;;;;;;5026901;28;20100;-70
2022/06/19 05:39:49;;;;;;;16.35;2.30;;;;;;;;;;5028534;28;20479;-70
2022/06/19 05:42:15;;;;;;;14.00;3.10;;;;;;;;;;5035627;28;20025;-70
2022/06/19 05:44:41;;;;;;;20.17;2.95;;;;;;;;;;5033425;28;20453;-69
2022/06/19 05:47:08;;;;;;;17.13;2.65;;;;;;;;;;5035842;28;20156;-70
2022/06/19 05:49:35;;;;;;;27.42;3.55;;;;;;;;;;5031677;28;20270;-70
2022/06/19 05:52:01;;;;;;;14.85;2.75;;;;;;;;;;5032953;28;20044;-70
2022/06/19 05:54:28;;;;;;;20.73;3.10;;;;;;;;;;5041344;28;20091;-70
2022/06/19 05:56:54;;;;;;;20.25;3.00;;;;;;;;;;5033567;28;20056;-72
2022/06/19 05:59:20;;;;;;;18.92;3.20;;;;;;;;;;5036516;28;20230;-73
2022/06/19 06:01:46;;;;;;;14.85;3.03;;;;;;;;;;5027159;28;20128;-72
2022/06/19 06:04:12;;;;;;;27.25;3.67;;;;;;;;;;5033147;28;20059;-72
2022/06/19 06:06:40;;;;;;;19.83;4.00;;;;;;;;;;5031300;28;20037;-71
2022/06/19 06:09:06;;;;;;;21.33;3.38;;;;;;;;;;5037179;28;20033;-74
2022/06/19 06:11:32;;;;;;;21.63;2.88;;;;;;;;;;5035741;28;20056;-72
2022/06/19 06:13:58;;;;;;;19.00;3.30;;;;;;;;;;5029557;28;20108;-72
2022/06/19 06:16:25;;;;;;;18.08;3.30;;;;;;;;;;5031917;28;20051;-71
2022/06/19 06:18:52;;;;;;;15.68;2.60;;;;;;;;;;5041230;28;20025;-72
2022/06/19 06:21:22;;;;;;;14.77;2.65;;;;;;;;;;5042036;28;20032;-71
2022/06/19 06:23:48;;;;;;;15.65;2.80;;;;;;;;;;5037420;28;20075;-71
2022/06/19 06:26:19;;;;;;;15.80;2.50;;;;;;;;;;5048445;28;20060;-71
2022/06/19 06:28:46;;;;;;;18.10;3.13;;;;;;;;;;5027910;28;20026;-70
2022/06/19 06:31:14;;;;;;;12.15;2.47;;;;;;;;;;5034947;28;20601;-71
2022/06/19 06:33:40;;;;;;;13.80;2.50;;;;;;;;;;5029037;28;20116;-70
2022/06/19 06:36:06;;;;;;;16.25;2.83;;;;;;;;;;5027616;28;20542;-74
2022/06/19 06:38:32;;;;;;;11.98;3.08;;;;;;;;;;5030075;28;20052;-74
2022/06/19 06:40:59;;;;;;;16.60;2.55;;;;;;;;;;5030301;28;20601;-73
2022/06/19 06:43:25;;;;;;;20.45;3.00;;;;;;;;;;5034220;28;21887;-74
2022/06/19 06:45:51;;;;;;;13.48;2.75;;;;;;;;;;5027712;28;20037;-73
2022/06/19 06:48:18;;;;;;;18.13;2.88;;;;;;;;;;5030923;28;20116;-73
2022/06/19 06:50:44;;;;;;;13.25;2.17;;;;;;;;;;5037937;28;20047;-75
2022/06/19 06:53:10;;;;;;;10.75;2.28;;;;;;;;;;5033009;28;20036;-71
2022/06/19 06:55:40;;;;;;;10.75;2.92;;;;;;;;;;5035603;28;20437;-77
2022/06/19 06:58:07;;;;;;;17.70;2.70;;;;;;;;;;5033672;28;20063;-78
2022/06/19 07:00:33;;;;;;;14.65;2.88;;;;;;;;;;5034442;28;20083;-78
2022/06/19 07:02:59;;;;;;;17.48;2.63;;;;;;;;;;5034147;28;20439;-78
2022/06/19 07:05:26;;;;;;;15.77;2.40;;;;;;;;;;5040957;28;20479;-79
2022/06/19 07:07:52;;;;;;;14.57;2.83;;;;;;;;;;5026028;28;20037;-78
2022/06/19 07:10:37;;;;;;;18.73;2.63;;;;;;;;;;5042351;28;20033;-78
2022/06/19 07:13:03;;;;;;;14.35;2.83;;;;;;;;;;5031382;28;20112;-80
2022/06/19 07:15:29;;;;;;;13.88;2.67;;;;;;;;;;5035624;28;20089;-77
2022/06/19 07:17:55;;;;;;;12.98;2.88;;;;;;;;;;5027633;28;20025;-76
2022/06/19 07:20:21;;;;;;;14.85;2.58;;;;;;;;;;5034925;28;20067;-77
2022/06/19 07:22:47;;;;;;;16.80;2.65;;;;;;;;;;5028985;28;20495;-76
2022/06/19 07:25:22;;;;;;;17.75;2.95;;;;;;;;;;5038339;28;20057;-76
2022/06/19 07:28:07;;;;;;;16.17;3.08;;;;;;;;;;5030373;28;20033;-77
2022/06/19 07:30:33;;;;;;;16.23;3.08;;;;;;;;;;5032951;28;20049;-76
2022/06/19 07:32:59;;;;;;;16.98;2.72;;;;;;;;;;5031800;28;20116;-78
2022/06/19 07:35:25;;;;;;;16.92;2.78;;;;;;;;;;5037759;28;20033;-77
2022/06/19 07:37:52;;;;;;;14.02;2.80;;;;;;;;;;5030209;28;20029;-77
2022/06/19 07:40:19;;;;;;;16.13;2.92;;;;;;;;;;5033001;28;20542;-77
2022/06/19 07:42:45;;;;;;;20.40;2.92;;;;;;;;;;5026824;28;20199;-77
2022/06/19 07:45:12;;;;;;;20.80;3.67;;;;;;;;;;5027690;28;20399;-78
2022/06/19 07:50:23;;;;;;;13.98;3.10;;;;;;;;;;5026910;28;20048;-78
2022/06/19 07:52:51;;;;;;;18.52;3.17;;;;;;;;;;5025759;28;20026;-77
2022/06/19 07:55:19;;;;;;;16.10;3.92;;;;;;;;;;5030981;28;20025;-76
2022/06/19 07:57:45;;;;;;;19.73;3.20;;;;;;;;;;5026407;28;20046;-78
2022/06/19 08:00:16;;;;;;;16.70;3.03;;;;;;;;;;5029512;28;20029;-77
2022/06/19 08:02:43;;;;;;;17.92;2.70;;;;;;;;;;5027956;28;20120;-78
2022/06/19 08:05:11;;;;;;;19.67;3.08;;;;;;;;;;5035638;28;20034;-79
2022/06/19 08:07:38;;;;;;;22.10;3.88;;;;;;;;;;5030001;28;20040;-79
2022/06/19 08:10:04;;;;;;;17.00;3.78;;;;;;;;;;5029481;28;20033;-81
2022/06/19 08:12:30;;;;;;;21.50;3.20;;;;;;;;;;5033794;28;20037;-82
2022/06/19 08:14:56;;;;;;;16.48;2.78;;;;;;;;;;5028209;28;20034;-80
2022/06/19 08:17:22;;;;;;;21.65;3.83;;;;;;;;;;5028129;28;20060;-81
2022/06/19 08:19:48;;;;;;;14.85;2.80;;;;;;;;;;5042861;28;20033;-80
2022/06/19 08:22:14;;;;;;;28.23;3.47;;;;;;;;;;5031246;28;20053;-79
2022/06/19 08:24:40;;;;;;;15.27;3.97;;;;;;;;;;5034820;28;20042;-79
2022/06/19 08:27:07;;;;;;;14.27;2.65;;;;;;;;;;5034673;28;20068;-80
2022/06/19 08:29:34;;;;;;;25.05;3.33;;;;;;;;;;5029215;28;20036;-80
2022/06/19 08:32:00;;;;;;;22.95;3.60;;;;;;;;;;5037683;28;20045;-78
2022/06/19 08:34:27;;;;;;;19.63;4.03;;;;;;;;;;5028371;28;20144;-81
2022/06/19 08:36:54;;;;;;;17.65;3.55;;;;;;;;;;5028410;28;20030;-79
2022/06/19 08:39:20;;;;;;;23.73;3.75;;;;;;;;;;5031872;28;20041;-80
2022/06/19 08:41:52;;;;;;;18.05;3.58;;;;;;;;;;5047108;28;20036;-80
2022/06/19 08:44:28;;;;;;;13.57;2.30;;;;;;;;;;5035730;28;20536;-84
2022/06/19 08:47:09;;;;;;;20.02;2.72;;;;;;;;;;5032582;28;20501;-79
2022/06/19 08:49:57;;;;;;;13.55;2.17;;;;;;;;;;5032449;28;20067;-80
2022/06/19 08:52:26;;;;;;;13.93;2.35;;;;;;;;;;5035568;28;21083;-80
2022/06/19 08:54:58;;;;;;;14.93;2.63;;;;;;;;;;5030695;28;20104;-79
2022/06/19 08:57:39;;;;;;;14.48;2.83;;;;;;;;;;5034258;28;20048;-79
2022/06/19 09:00:24;;;;;;;12.88;2.42;;;;;;;;;;5041928;28;20487;-79
2022/06/19 09:03:02;;;;;;;15.38;2.97;;;;;;;;;;5050321;28;20043;-80
2022/06/19 09:05:46;;;;;;;13.38;2.33;;;;;;;;;;5034199;28;20026;-79
2022/06/19 09:08:25;;;;;;;14.95;2.55;;;;;;;;;;5030902;28;20029;-78
2022/06/19 09:10:55;;;;;;;20.83;3.22;;;;;;;;;;5030272;28;20033;-79
2022/06/19 09:13:21;;;;;;;13.37;2.40;;;;;;;;;;5036813;28;20132;-78
2022/06/19 09:15:51;;;;;;;12.25;2.58;;;;;;;;;;5037703;28;20029;-77
2022/06/19 09:18:20;;;;;;;12.73;2.22;;;;;;;;;;5032318;28;20068;-77
2022/06/19 09:20:51;;;;;;;12.48;2.45;;;;;;;;;;5038189;28;20077;-76
2022/06/19 09:23:32;;;;;;;18.13;2.70;;;;;;;;;;5046959;28;20056;-76
2022/06/19 09:25:59;;;;;;;11.20;2.00;;;;;;;;;;5031499;28;20479;-77
2022/06/19 09:28:34;;;;;;;9.50;1.95;;;;;;;;;;5026325;28;20066;-77
2022/06/19 09:31:08;;;;;;;16.27;2.50;;;;;;;;;;5033803;28;20039;-75
2022/06/19 09:33:53;;;;;;;12.75;2.47;;;;;;;;;;5036532;28;20021;-76
2022/06/19 09:36:31;;;;;;;8.27;2.03;;;;;;;;;;5024792;28;20021;-76
2022/06/19 09:39:16;;;;;;;15.43;2.40;;;;;;;;;;5033888;28;20029;-76
2022/06/19 09:41:46;;;;;;;12.20;2.35;;;;;;;;;;5033393;28;20061;-76
2022/06/19 09:44:12;;;;;;;12.63;2.50;;;;;;;;;;5033631;28;20070;-77
2022/06/19 09:46:46;;;;;;;13.32;2.40;;;;;;;;;;5034344;28;20033;-75
2022/06/19 09:49:20;;;;;;;11.40;2.20;;;;;;;;;;5036994;28;20107;-76
2022/06/19 09:51:50;;;;;;;19.85;3.22;;;;;;;;;;5032645;28;20111;-76
2022/06/19 09:54:20;;;;;;;13.73;2.17;;;;;;;;;;5032428;28;20515;-76
2022/06/19 09:56:52;;;;;;;10.35;2.10;;;;;;;;;;5026312;28;20186;-76
2022/06/19 09:59:21;;;;;;;14.90;2.72;;;;;;;;;;5032771;28;20028;-78
2022/06/19 10:01:55;;;;;;;15.35;3.33;;;;;;;;;;5029628;28;20116;-75
2022/06/19 10:04:34;;;;;;;15.90;2.75;;;;;;;;;;5032006;28;20017;-75
2022/06/19 10:07:01;;;;;;;18.48;3.00;;;;;;;;;;5029323;28;20993;-76
2022/06/19 10:09:42;;;;;;;10.10;2.25;;;;;;;;;;5033471;28;20029;-75
2022/06/19 10:12:12;;;;;;;14.13;3.13;;;;;;;;;;5038088;28;20027;-76
2022/06/19 10:14:43;;;;;;;13.35;2.65;;;;;;;;;;5038311;28;20025;-76
2022/06/19 10:17:24;;;;;;;13.77;2.72;;;;;;;;;;5030826;28;20037;-77
2022/06/19 10:19:50;;;;;;;;;;;;;;;;;;5033203;28;20029;-78
2022/06/19 10:22:16;;;;;;;11.80;2.40;;;;;;;;;;5031748;28;19983;-78
2022/06/19 10:24:48;;;;;;;17.40;2.38;;;;;;;;;;5034510;28;20081;-76
2022/06/19 10:27:29;;;;;;;14.05;2.40;;;;;;;;;;5029141;28;20120;-78
2022/06/19 10:30:05;;;;;;;18.25;2.65;;;;;;;;;;5031507;28;20194;-80
2022/06/19 10:32:31;;;;;;;19.88;2.80;;;;;;;;;;5030581;28;20033;-80
2022/06/19 10:35:12;;;;;;;11.70;2.35;;;;;;;;;;5031384;28;20047;-79
2022/06/19 10:37:53;;;;;;;12.75;2.50;;;;;;;;;;5029666;28;20021;-77
2022/06/19 10:40:26;;;;;;;14.25;3.53;;;;;;;;;;5033122;28;20025;-79
2022/06/19 10:43:01;;;;;;;11.82;2.67;;;;;;;;;;5032071;28;20175;-79
2022/06/19 10:45:30;;;;;;;18.77;2.85;;;;;;;;;;5038708;28;20532;-77
2022/06/19 10:48:05;;;;;;;14.85;2.88;;;;;;;;;;5032848;28;20080;-76
2022/06/19 10:50:48;;;;;;;12.50;2.28;;;;;;;;;;5045858;28;20445;-78
2022/06/19 10:53:38;;;;;;;13.93;3.20;;;;;;;;;;5035877;28;20051;-77
2022/06/19 10:56:23;;;;;;;9.27;2.60;;;;;;;;;;5023563;28;20045;-78
2022/06/19 10:58:50;;;;;;;12.68;2.17;;;;;;;;;;4987409;28;20092;-77
2022/06/19 11:04:09;;;;;;;10.30;2.40;;;;;;;;;;4993438;28;20332;-78
2022/06/19 11:06:41;;;;;;;14.07;2.63;;;;;;;;;;4991029;28;20022;-75
2022/06/19 11:09:08;;;;;;;9.85;2.25;;;;;;;;;;4999219;28;20029;-77
2022/06/19 11:11:36;;;;;;;15.57;2.10;;;;;;;;;;4996251;28;20022;-76
2022/06/19 11:14:07;;;;;;;14.18;2.33;;;;;;;;;;4995256;28;20557;-76
2022/06/19 11:16:33;;;;;;;9.43;2.30;;;;;;;;;;4994894;28;20064;-75
2022/06/19 11:19:00;;;;;;;9.27;2.38;;;;;;;;;;4987769;28;20030;-76
2022/06/19 11:21:32;;;;;;;14.50;2.63;;;;;;;;;;4989090;28;20041;-76
2022/06/19 11:23:59;;;;;;;11.65;1.83;;;;;;;;;;4995551;28;20029;-76
2022/06/19 11:26:37;;;;;;;12.10;2.28;;;;;;;;;;4989215;28;20022;-77
2022/06/19 11:29:04;;;;;;;12.02;2.28;;;;;;;;;;4989088;28;20113;-77
2022/06/19 11:31:37;;;;;;;7.40;1.60;;;;;;;;;;5005550;28;20086;-77
2022/06/19 11:37:11;;;;;;;9.32;2.40;;;;;;;;;;4995884;28;20033;-77
2022/06/19 11:39:39;;;;;;;8.45;1.75;;;;;;;;;;4989267;28;20500;-78
2022/06/19 11:42:19;;;;;;;8.75;2.00;;;;;;;;;;4998321;28;20042;-78
2022/06/19 11:45:06;;;;;;;10.70;1.98;;;;;;;;;;4990741;28;20034;-77
2022/06/19 11:47:41;;;;;;;8.65;1.55;;;;;;;;;;4988079;28;20050;-78
2022/06/19 11:50:27;;;;;;;8.00;1.60;;;;;;;;;;4989582;28;20026;-77
2022/06/19 11:52:56;;;;;;;13.20;1.92;;;;;;;;;;4987496;28;20118;-76
2022/06/19 11:55:30;;;;;;;8.85;2.08;;;;;;;;;;4988931;28;20181;-77
2022/06/19 11:58:01;;;;;;;8.38;1.90;;;;;;;;;;5012082;28;20041;-77
2022/06/19 12:00:32;;;;;;;7.68;1.95;;;;;;;;;;5034606;28;20026;-78
2022/06/19 12:03:06;;;;;;;5.15;1.45;;;;;;;;;;5024696;28;20033;-76
2022/06/19 12:05:37;;;;;;;6.90;1.67;;;;;;;;;;5025015;28;20029;-77
2022/06/19 12:08:05;;;;;;;;;;;;;;;;;;5027420;28;20045;-77
2022/06/19 12:10:34;;;;;;;6.72;1.40;;;;;;;;;;5027713;28;19917;-77
2022/06/19 12:13:01;;;;;;;6.43;1.70;;;;;;;;;;5032911;28;20251;-78
2022/06/19 12:15:29;;;;;;;7.38;1.63;;;;;;;;;;5034602;28;20045;-77
2022/06/19 12:17:56;;;;;;;6.88;1.33;;;;;;;;;;5028537;28;20021;-77
2022/06/19 12:20:25;;;;;;;5.15;1.55;;;;;;;;;;5031929;28;20084;-76
2022/06/19 12:22:51;;;;;;;7.43;1.45;;;;;;;;;;5027603;28;20041;-77
2022/06/19 12:25:31;;;;;;;8.27;1.73;;;;;;;;;;5030556;28;20029;-77
2022/06/19 12:27:57;;;;;;;5.32;1.38;;;;;;;;;;5029140;28;20191;-76
2022/06/19 12:30:26;;;;;;;5.32;1.40;;;;;;;;;;5026687;28;20072;-76
2022/06/19 12:32:53;;;;;;;10.25;2.10;;;;;;;;;;5029230;28;20033;-76
2022/06/19 12:35:29;;;;;;;6.05;1.70;;;;;;;;;;5028102;28;20612;-77
2022/06/19 12:37:55;;;;;;;6.65;1.92;;;;;;;;;;5027248;28;20049;-76
2022/06/19 12:40:26;;;;;;;7.55;1.40;;;;;;;;;;5013105;28;20080;-77
2022/06/19 12:42:52;;;;;;;4.95;1.55;;;;;;;;;;5033019;28;20053;-77
2022/06/19 12:45:44;;;;;;;8.02;1.40;;;;;;;;;;5035406;28;20029;-77
2022/06/19 12:48:16;;;;;;;5.80;1.50;;;;;;;;;;5026454;28;20029;-77
2022/06/19 12:50:52;;;;;;;7.68;1.60;;;;;;;;;;5027779;28;20037;-78
2022/06/19 12:53:31;;;;;;;6.43;1.55;;;;;;;;;;5024884;28;20030;-74
2022/06/19 12:56:00;;;;;;;9.17;1.97;;;;;;;;;;5028713;28;20104;-78
2022/06/19 12:58:36;;;;;;;7.13;1.73;;;;;;;;;;5029124;28;20078;-75
2022/06/19 13:01:05;;;;;;;8.63;1.75;;;;;;;;;;5028340;28;20082;-77
2022/06/19 13:03:44;;;;;;;7.75;1.50;;;;;;;;;;5030688;28;20525;-77
2022/06/19 13:06:20;;;;;;;5.10;1.42;;;;;;;;;;5034807;28;20148;-76
2022/06/19 13:08:46;;;;;;;9.40;1.75;;;;;;;;;;5034671;28;20494;-77
2022/06/19 13:11:18;;;;;;;7.95;1.40;;;;;;;;;;5026527;28;20036;-77
2022/06/19 13:13:56;;;;;;;6.95;1.55;;;;;;;;;;5038419;28;20025;-77
2022/06/19 13:16:31;;;;;;;7.22;1.80;;;;;;;;;;5033114;28;20034;-76
2022/06/19 13:19:10;;;;;;;6.38;1.75;;;;;;;;;;5033893;28;20038;-76
2022/06/19 13:21:45;;;;;;;7.43;1.55;;;;;;;;;;5031013;28;20033;-77
2022/06/19 13:24:11;;;;;;;9.32;1.70;;;;;;;;;;5043044;28;20482;-76
2022/06/19 13:29:37;;;;;;;7.93;2.00;;;;;;;;;;5038923;28;20407;-75
2022/06/19 13:32:08;;;;;;;10.95;1.80;;;;;;;;;;5030598;28;20540;-77
2022/06/19 13:34:53;;;;;;;8.63;2.10;;;;;;;;;;5035444;28;20052;-77
2022/06/19 13:37:21;;;;;;;11.95;2.45;;;;;;;;;;5036666;28;20036;-76
2022/06/19 13:39:52;;;;;;;12.30;2.10;;;;;;;;;;5036993;28;20434;-77
2022/06/19 13:42:18;;;;;;;;;;;;;;;;;;5033664;28;20052;-76
2022/06/19 13:45:02;;;;;;;10.52;2.30;;;;;;;;;;5036424;28;19909;-76
2022/06/19 13:47:35;;;;;;;9.25;1.95;;;;;;;;;;5035626;28;20434;-77
2022/06/19 13:50:07;;;;;;;10.57;1.85;;;;;;;;;;5033670;28;20128;-78
2022/06/19 13:52:51;;;;;;;7.55;1.88;;;;;;;;;;5029809;28;20104;-78
2022/06/19 13:55:37;;;;;;;13.48;2.47;;;;;;;;;;5036508;28;20021;-78
2022/06/19 13:58:10;;;;;;;7.10;1.77;;;;;;;;;;5027788;28;20041;-77
2022/06/19 14:00:55;;;;;;;9.38;1.88;;;;;;;;;;5031875;28;20506;-78
2022/06/19 14:06:40;;;;;;;9.73;2.30;;;;;;;;;;5035270;28;20427;-82
2022/06/19 14:09:21;;;;;;;7.32;2.08;;;;;;;;;;5036338;28;20033;-76
2022/06/19 14:12:06;;;;;;;11.75;2.45;;;;;;;;;;5034784;28;20032;-76
2022/06/19 14:14:35;;;;;;;8.00;2.03;;;;;;;;;;5032166;28;20029;-79
2022/06/19 14:17:25;;;;;;;12.13;2.22;;;;;;;;;;5019030;28;20041;-79
2022/06/19 14:19:54;;;;;;;13.82;2.95;;;;;;;;;;5016622;28;20094;-79
2022/06/19 14:22:23;;;;;;;12.57;2.75;;;;;;;;;;5029511;28;20485;-79
2022/06/19 14:25:01;;;;;;;9.57;1.83;;;;;;;;;;5027525;28;20549;-77
2022/06/19 14:27:27;;;;;;;9.30;2.22;;;;;;;;;;5028960;28;20026;-77
2022/06/19 14:29:54;;;;;;;12.68;2.83;;;;;;;;;;5037512;28;20047;-78
2022/06/19 14:32:43;;;;;;;12.85;2.03;;;;;;;;;;5034333;28;20021;-78
2022/06/19 14:35:28;;;;;;;8.73;2.03;;;;;;;;;;5032430;28;20479;-78
2022/06/19 14:38:13;;;;;;;10.65;2.25;;;;;;;;;;5029725;28;20045;-79
2022/06/19 14:40:42;;;;;;;9.25;2.28;;;;;;;;;;5027065;28;20029;-77
2022/06/19 14:43:11;;;;;;;13.45;2.60;;;;;;;;;;5029495;28;20021;-79
2022/06/19 14:45:50;;;;;;;9.80;2.20;;;;;;;;;;5028926;28;20040;-78
2022/06/19 14:48:22;;;;;;;11.50;2.53;;;;;;;;;;5029563;28;20087;-79
2022/06/19 14:51:03;;;;;;;17.05;2.80;;;;;;;;;;5035454;28;20103;-80
2022/06/19 14:53:32;;;;;;;11.15;2.53;;;;;;;;;;5031915;28;20022;-82
2022/06/19 14:56:28;;;;;;;11.82;2.78;;;;;;;;;;5035778;28;20025;-83
2022/06/19 14:58:55;;;;;;;9.65;2.15;;;;;;;;;;5035266;28;20052;-83
2022/06/19 15:01:24;;;;;;;16.65;3.17;;;;;;;;;;5031222;28;20039;-84
2022/06/19 15:03:56;;;;;;;13.52;2.30;;;;;;;;;;5027496;28;20025;-80